Montgomery, AL (36101)

9:57 PM CDT on August 22, 2014 (GMT -0500)
Boylston | Change Station
CLOSE
Current Station
Personal Weather Station
Location: Montgomery, AL
Elevation: 220 ft
Nearby Weather Stations
Active Advisory: Heat Advisory

Elev 220 ft 32.43 °N, 86.28 °W | Updated 4 seconds ago

Clear
Clear
83.7 °F
Feels Like 91 °F
N
0.0
Wind Variable Wind from SW
Gusts 0.0 mph

Today
High -- | Low -- °F
--% Chance of Precip.
Yesterday
High -- | Low -- °F
Precip. -- in
6:13 AM 7:21 PM
Waning Crescent, 5% visible
Pressure 30.01 in
Visibility 10.0 miles
Clouds Clear
Heat Index 91 °F
Dew Point 74 °F
Humidity 74%
Rainfall 0.04 in
Snow Depth Not available.
UV 0 out of 12
Pollen 8.90 out of 12
Air Quality Not available.
Flu Activity Not available.
METAR KMXF 230158Z AUTO 00000KT 10SM CLR 28/25 A3000 RMK AO2 SLP160 T02800247

More Conditions Fewer Conditions

Pressure 30.01 in
Visibility 10.0 miles
Clouds Clear
Heat Index 91 °F
Dew Point 74 °F
Humidity 74%
Rainfall 0.04 in
Snow Depth Not available.
UV 0 out of 12
Pollen 8.90 out of 12
Air Quality Not available.
Flu Activity Not available.
METAR KMXF 230158Z AUTO 00000KT 10SM CLR 28/25 A3000 RMK AO2 SLP160 T02800247

More Conditions Fewer Conditions

10-Day Weather Forecast

Almanac

Astronomy

Aug. 22, 2014 Rise Set
Actual Time 6:13 AM CDT 7:21 PM CDT
Civil Twilight 5:48 AM CDT 7:47 PM CDT
Nautical Twilight 5:18 AM CDT 8:17 PM CDT
Astronomical Twilight 4:46 AM CDT 8:48 PM CDT
Moon 3:40 AM CDT (8/22) 5:26 PM CDT (8/22)
Length of Visible Light 13h 58m
Length of Day
13h 08m
Tomorrow will be 1m 49s shorter.
Waning Crescent, 5% of the Moon is Illuminated
Today
Waning Crescent
Aug 25
New
Sep 2
First Quarter
Sep 8
Full
Sep 15
Last Quarter

Today's Extremes

State Highs State Lows

Community

WunderPhotos

Upload Photos

1,746,348 photos uploaded!

WunderBlogs® & News

Nearby

Snow Depth

Station Depth Elevation
No new snow has been reported.

Earthquake Activity

City Distance Mag. Time & Date
No recent earthquake activity has been reported nearby.
Minimum magnitude displayed is 2.5.

Coastal Water Temperatures

Place Temperature
No Stations Reporting

Nearby Weather Stations